sensor_id;sensor_type;location;lat;lon;timestamp;temperature;humidity
4896;DHT22;2463;49.948;8.472;2023-10-13T00:00:30;18.40;99.90
4896;DHT22;2463;49.948;8.472;2023-10-13T00:03:00;18.30;99.90
4896;DHT22;2463;49.948;8.472;2023-10-13T00:05:30;18.30;99.90
4896;DHT22;2463;49.948;8.472;2023-10-13T00:08:01;18.30;99.90
4896;DHT22;2463;49.948;8.472;2023-10-13T00:10:29;18.30;99.90
4896;DHT22;2463;49.948;8.472;2023-10-13T00:12:56;18.20;99.90
4896;DHT22;2463;49.948;8.472;2023-10-13T00:15:39;18.20;99.90
4896;DHT22;2463;49.948;8.472;2023-10-13T00:18:11;18.30;99.90
4896;DHT22;2463;49.948;8.472;2023-10-13T00:20:41;18.20;99.90
4896;DHT22;2463;49.948;8.472;2023-10-13T00:23:16;18.30;99.90
4896;DHT22;2463;49.948;8.472;2023-10-13T00:25:50;18.30;99.90
4896;DHT22;2463;49.948;8.472;2023-10-13T00:28:24;18.30;99.90
4896;DHT22;2463;49.948;8.472;2023-10-13T00:30:52;18.30;99.90
4896;DHT22;2463;49.948;8.472;2023-10-13T00:33:25;18.30;99.90
4896;DHT22;2463;49.948;8.472;2023-10-13T00:35:52;18.30;99.90
4896;DHT22;2463;49.948;8.472;2023-10-13T00:38:24;18.20;99.90
4896;DHT22;2463;49.948;8.472;2023-10-13T00:40:51;18.20;99.90
4896;DHT22;2463;49.948;8.472;2023-10-13T00:43:22;18.30;99.90
4896;DHT22;2463;49.948;8.472;2023-10-13T00:45:57;18.10;99.90
4896;DHT22;2463;49.948;8.472;2023-10-13T00:48:26;18.20;99.90
4896;DHT22;2463;49.948;8.472;2023-10-13T00:50:57;18.20;99.90
4896;DHT22;2463;49.948;8.472;2023-10-13T00:53:24;18.20;99.90
4896;DHT22;2463;49.948;8.472;2023-10-13T00:55:52;18.20;99.90
4896;DHT22;2463;49.948;8.472;2023-10-13T00:58:23;18.20;99.90
4896;DHT22;2463;49.948;8.472;2023-10-13T01:00:51;18.20;99.90
4896;DHT22;2463;49.948;8.472;2023-10-13T01:06:22;18.20;99.90
4896;DHT22;2463;49.948;8.472;2023-10-13T01:09:09;18.20;99.90
4896;DHT22;2463;49.948;8.472;2023-10-13T01:11:47;18.20;99.90
4896;DHT22;2463;49.948;8.472;2023-10-13T01:14:15;18.20;99.90
4896;DHT22;2463;49.948;8.472;2023-10-13T01:16:45;18.10;99.90
4896;DHT22;2463;49.948;8.472;2023-10-13T01:19:17;18.30;99.90
4896;DHT22;2463;49.948;8.472;2023-10-13T01:21:49;18.20;99.90
4896;DHT22;2463;49.948;8.472;2023-10-13T01:24:15;18.20;99.90
4896;DHT22;2463;49.948;8.472;2023-10-13T01:26:52;18.30;99.90
4896;DHT22;2463;49.948;8.472;2023-10-13T01:29:19;18.30;99.90
4896;DHT22;2463;49.948;8.472;2023-10-13T01:31:52;18.30;99.90
4896;DHT22;2463;49.948;8.472;2023-10-13T01:34:19;18.30;99.90
4896;DHT22;2463;49.948;8.472;2023-10-13T01:36:49;18.30;99.90
4896;DHT22;2463;49.948;8.472;2023-10-13T01:39:24;18.30;99.90
4896;DHT22;2463;49.948;8.472;2023-10-13T01:41:55;19.20;99.90
4896;DHT22;2463;49.948;8.472;2023-10-13T01:44:24;18.30;99.90
4896;DHT22;2463;49.948;8.472;2023-10-13T01:46:53;18.30;99.90
4896;DHT22;2463;49.948;8.472;2023-10-13T01:49:19;18.30;99.90
4896;DHT22;2463;49.948;8.472;2023-10-13T01:51:49;18.40;99.90
4896;DHT22;2463;49.948;8.472;2023-10-13T01:54:16;18.40;99.90
4896;DHT22;2463;49.948;8.472;2023-10-13T01:56:43;18.40;99.90
4896;DHT22;2463;49.948;8.472;2023-10-13T01:59:11;18.40;99.90
4896;DHT22;2463;49.948;8.472;2023-10-13T02:01:38;18.40;99.90
4896;DHT22;2463;49.948;8.472;2023-10-13T02:04:07;18.50;99.90
4896;DHT22;2463;49.948;8.472;2023-10-13T02:06:35;18.50;99.90
4896;DHT22;2463;49.948;8.472;2023-10-13T02:09:07;18.60;99.90
4896;DHT22;2463;49.948;8.472;2023-10-13T02:11:41;18.50;99.90
4896;DHT22;2463;49.948;8.472;2023-10-13T02:14:08;18.50;99.90
4896;DHT22;2463;49.948;8.472;2023-10-13T02:16:40;18.50;99.90
4896;DHT22;2463;49.948;8.472;2023-10-13T02:19:07;18.50;99.90
4896;DHT22;2463;49.948;8.472;2023-10-13T02:21:41;18.50;99.90
4896;DHT22;2463;49.948;8.472;2023-10-13T02:24:11;18.50;99.90
4896;DHT22;2463;49.948;8.472;2023-10-13T02:26:45;18.50;99.90
4896;DHT22;2463;49.948;8.472;2023-10-13T02:29:12;18.50;99.90
4896;DHT22;2463;49.948;8.472;2023-10-13T02:31:41;18.50;99.90
4896;DHT22;2463;49.948;8.472;2023-10-13T02:34:08;18.40;99.90
4896;DHT22;2463;49.948;8.472;2023-10-13T02:36:36;18.40;99.90
4896;DHT22;2463;49.948;8.472;2023-10-13T02:39:06;18.40;99.90
4896;DHT22;2463;49.948;8.472;2023-10-13T02:41:35;18.40;99.90
4896;DHT22;2463;49.948;8.472;2023-10-13T02:44:06;18.40;99.90
4896;DHT22;2463;49.948;8.472;2023-10-13T02:46:34;18.40;99.90
4896;DHT22;2463;49.948;8.472;2023-10-13T02:49:06;18.40;99.90
4896;DHT22;2463;49.948;8.472;2023-10-13T02:51:38;18.30;99.90
4896;DHT22;2463;49.948;8.472;2023-10-13T02:54:10;18.30;99.90
4896;DHT22;2463;49.948;8.472;2023-10-13T02:56:38;18.30;99.90
4896;DHT22;2463;49.948;8.472;2023-10-13T02:59:24;18.20;99.90
4896;DHT22;2463;49.948;8.472;2023-10-13T03:02:26;18.20;99.90
4896;DHT22;2463;49.948;8.472;2023-10-13T03:04:58;18.20;99.90
4896;DHT22;2463;49.948;8.472;2023-10-13T03:07:36;18.20;99.90
4896;DHT22;2463;49.948;8.472;2023-10-13T03:10:03;18.10;99.90
4896;DHT22;2463;49.948;8.472;2023-10-13T03:12:38;18.20;99.90
4896;DHT22;2463;49.948;8.472;2023-10-13T03:15:06;18.20;99.90
4896;DHT22;2463;49.948;8.472;2023-10-13T03:17:59;18.20;99.90
4896;DHT22;2463;49.948;8.472;2023-10-13T03:20:26;18.20;99.90
4896;DHT22;2463;49.948;8.472;2023-10-13T03:22:59;18.00;99.90
4896;DHT22;2463;49.948;8.472;2023-10-13T03:25:26;18.10;99.90
4896;DHT22;2463;49.948;8.472;2023-10-13T03:27:58;18.10;99.90
4896;DHT22;2463;49.948;8.472;2023-10-13T03:30:28;18.10;99.90
4896;DHT22;2463;49.948;8.472;2023-10-13T03:33:09;18.10;99.90
4896;DHT22;2463;49.948;8.472;2023-10-13T03:35:40;18.00;99.90
4896;DHT22;2463;49.948;8.472;2023-10-13T03:38:12;18.00;99.90
4896;DHT22;2463;49.948;8.472;2023-10-13T03:40:49;18.00;99.90
4896;DHT22;2463;49.948;8.472;2023-10-13T03:43:23;18.00;99.90
4896;DHT22;2463;49.948;8.472;2023-10-13T03:45:50;18.00;99.90
4896;DHT22;2463;49.948;8.472;2023-10-13T03:48:27;18.00;99.90
4896;DHT22;2463;49.948;8.472;2023-10-13T03:51:00;18.00;99.90
4896;DHT22;2463;49.948;8.472;2023-10-13T03:53:30;17.90;99.90
4896;DHT22;2463;49.948;8.472;2023-10-13T03:56:04;17.90;99.90
4896;DHT22;2463;49.948;8.472;2023-10-13T03:58:56;16.80;99.90
4896;DHT22;2463;49.948;8.472;2023-10-13T04:01:41;17.90;99.90
4896;DHT22;2463;49.948;8.472;2023-10-13T04:04:29;17.80;99.90
4896;DHT22;2463;49.948;8.472;2023-10-13T04:07:08;17.80;99.90
4896;DHT22;2463;49.948;8.472;2023-10-13T04:09:38;17.80;99.90
4896;DHT22;2463;49.948;8.472;2023-10-13T04:12:06;17.80;99.90
4896;DHT22;2463;49.948;8.472;2023-10-13T04:14:41;17.80;99.90
4896;DHT22;2463;49.948;8.472;2023-10-13T04:17:08;17.80;99.90
4896;DHT22;2463;49.948;8.472;2023-10-13T04:19:41;17.80;99.90
4896;DHT22;2463;49.948;8.472;2023-10-13T04:22:27;17.80;99.90
4896;DHT22;2463;49.948;8.472;2023-10-13T04:25:21;17.80;99.90
4896;DHT22;2463;49.948;8.472;2023-10-13T04:28:09;17.80;99.90
4896;DHT22;2463;49.948;8.472;2023-10-13T04:30:51;17.80;99.90
4896;DHT22;2463;49.948;8.472;2023-10-13T04:33:27;17.80;99.90
4896;DHT22;2463;49.948;8.472;2023-10-13T04:36:14;17.80;99.90
4896;DHT22;2463;49.948;8.472;2023-10-13T04:38:44;17.80;99.90
4896;DHT22;2463;49.948;8.472;2023-10-13T04:41:34;17.70;99.90
4896;DHT22;2463;49.948;8.472;2023-10-13T04:44:25;17.70;99.90
4896;DHT22;2463;49.948;8.472;2023-10-13T04:47:07;17.70;99.90
4896;DHT22;2463;49.948;8.472;2023-10-13T04:49:44;17.70;99.90
4896;DHT22;2463;49.948;8.472;2023-10-13T04:52:14;17.70;99.90
4896;DHT22;2463;49.948;8.472;2023-10-13T04:55:01;17.70;99.90
4896;DHT22;2463;49.948;8.472;2023-10-13T04:57:46;17.60;99.90
4896;DHT22;2463;49.948;8.472;2023-10-13T05:00:16;17.50;99.90
4896;DHT22;2463;49.948;8.472;2023-10-13T05:02:47;17.50;99.90
4896;DHT22;2463;49.948;8.472;2023-10-13T05:05:16;17.50;99.90
4896;DHT22;2463;49.948;8.472;2023-10-13T05:07:49;17.40;99.90
4896;DHT22;2463;49.948;8.472;2023-10-13T05:10:35;17.40;99.90
4896;DHT22;2463;49.948;8.472;2023-10-13T05:13:21;17.40;99.90
4896;DHT22;2463;49.948;8.472;2023-10-13T05:16:06;17.30;99.90
4896;DHT22;2463;49.948;8.472;2023-10-13T05:18:51;17.30;99.90
4896;DHT22;2463;49.948;8.472;2023-10-13T05:21:37;17.30;99.90
4896;DHT22;2463;49.948;8.472;2023-10-13T05:24:23;17.30;99.90
4896;DHT22;2463;49.948;8.472;2023-10-13T05:27:08;17.40;99.90
4896;DHT22;2463;49.948;8.472;2023-10-13T05:29:54;17.40;99.90
4896;DHT22;2463;49.948;8.472;2023-10-13T05:32:40;17.40;99.90
4896;DHT22;2463;49.948;8.472;2023-10-13T05:35:25;17.40;99.90
4896;DHT22;2463;49.948;8.472;2023-10-13T05:38:11;17.40;99.90
4896;DHT22;2463;49.948;8.472;2023-10-13T05:41:01;17.50;99.90
4896;DHT22;2463;49.948;8.472;2023-10-13T05:43:51;17.50;99.90
4896;DHT22;2463;49.948;8.472;2023-10-13T05:46:36;17.50;99.90
4896;DHT22;2463;49.948;8.472;2023-10-13T05:49:07;17.60;99.90
4896;DHT22;2463;49.948;8.472;2023-10-13T05:51:44;17.60;99.90
4896;DHT22;2463;49.948;8.472;2023-10-13T05:54:47;17.60;99.90
4896;DHT22;2463;49.948;8.472;2023-10-13T05:57:32;17.60;99.90
4896;DHT22;2463;49.948;8.472;2023-10-13T06:00:18;17.70;99.90
4896;DHT22;2463;49.948;8.472;2023-10-13T06:03:03;17.60;99.90
4896;DHT22;2463;49.948;8.472;2023-10-13T06:05:49;17.60;99.90
4896;DHT22;2463;49.948;8.472;2023-10-13T06:08:34;17.50;99.90
4896;DHT22;2463;49.948;8.472;2023-10-13T06:11:19;17.40;99.90
4896;DHT22;2463;49.948;8.472;2023-10-13T06:14:05;17.40;99.90
4896;DHT22;2463;49.948;8.472;2023-10-13T06:16:50;17.40;99.90
4896;DHT22;2463;49.948;8.472;2023-10-13T06:19:36;17.40;99.90
4896;DHT22;2463;49.948;8.472;2023-10-13T06:22:21;17.50;99.90
4896;DHT22;2463;49.948;8.472;2023-10-13T06:25:07;17.50;99.90
4896;DHT22;2463;49.948;8.472;2023-10-13T06:27:52;17.60;99.90
4896;DHT22;2463;49.948;8.472;2023-10-13T06:30:38;17.70;99.90
4896;DHT22;2463;49.948;8.472;2023-10-13T06:33:04;17.70;99.90
4896;DHT22;2463;49.948;8.472;2023-10-13T06:35:31;17.80;99.90
4896;DHT22;2463;49.948;8.472;2023-10-13T06:37:58;17.80;99.90
4896;DHT22;2463;49.948;8.472;2023-10-13T06:40:27;17.90;99.90
4896;DHT22;2463;49.948;8.472;2023-10-13T06:43:00;18.00;99.90
4896;DHT22;2463;49.948;8.472;2023-10-13T06:45:43;18.00;99.90
4896;DHT22;2463;49.948;8.472;2023-10-13T06:48:17;18.10;99.90
4896;DHT22;2463;49.948;8.472;2023-10-13T06:50:50;18.20;99.90
4896;DHT22;2463;49.948;8.472;2023-10-13T06:53:19;18.30;99.90
4896;DHT22;2463;49.948;8.472;2023-10-13T06:55:46;18.30;99.90
4896;DHT22;2463;49.948;8.472;2023-10-13T06:58:19;18.40;99.90
4896;DHT22;2463;49.948;8.472;2023-10-13T07:00:51;18.40;99.90
4896;DHT22;2463;49.948;8.472;2023-10-13T07:03:22;18.50;99.90
4896;DHT22;2463;49.948;8.472;2023-10-13T07:05:49;18.50;99.90
4896;DHT22;2463;49.948;8.472;2023-10-13T07:08:16;18.50;99.90
4896;DHT22;2463;49.948;8.472;2023-10-13T07:10:51;18.60;99.90
4896;DHT22;2463;49.948;8.472;2023-10-13T07:13:18;18.60;99.90
4896;DHT22;2463;49.948;8.472;2023-10-13T07:15:46;18.70;99.90
4896;DHT22;2463;49.948;8.472;2023-10-13T07:18:14;18.80;99.90
4896;DHT22;2463;49.948;8.472;2023-10-13T07:20:49;18.80;99.90
4896;DHT22;2463;49.948;8.472;2023-10-13T07:23:15;18.80;99.90
4896;DHT22;2463;49.948;8.472;2023-10-13T07:25:54;18.80;99.90
4896;DHT22;2463;49.948;8.472;2023-10-13T07:28:22;18.90;99.90
4896;DHT22;2463;49.948;8.472;2023-10-13T07:30:48;18.90;99.90
4896;DHT22;2463;49.948;8.472;2023-10-13T07:33:38;19.00;99.90
4896;DHT22;2463;49.948;8.472;2023-10-13T07:36:09;19.00;99.90
4896;DHT22;2463;49.948;8.472;2023-10-13T07:38:54;19.00;99.90
4896;DHT22;2463;49.948;8.472;2023-10-13T07:41:58;19.00;99.90
4896;DHT22;2463;49.948;8.472;2023-10-13T07:44:32;19.10;99.90
4896;DHT22;2463;49.948;8.472;2023-10-13T07:47:01;19.00;99.90
4896;DHT22;2463;49.948;8.472;2023-10-13T07:49:40;17.70;99.90
4896;DHT22;2463;49.948;8.472;2023-10-13T07:52:08;19.10;99.90
4896;DHT22;2463;49.948;8.472;2023-10-13T07:54:51;19.20;99.90
4896;DHT22;2463;49.948;8.472;2023-10-13T07:57:37;19.20;99.90
4896;DHT22;2463;49.948;8.472;2023-10-13T08:00:20;19.30;99.90
4896;DHT22;2463;49.948;8.472;2023-10-13T08:03:13;19.30;99.90
4896;DHT22;2463;49.948;8.472;2023-10-13T08:05:53;19.30;99.90
4896;DHT22;2463;49.948;8.472;2023-10-13T08:08:39;19.40;99.90
4896;DHT22;2463;49.948;8.472;2023-10-13T08:11:07;19.40;99.90
4896;DHT22;2463;49.948;8.472;2023-10-13T08:13:50;21.10;99.90
4896;DHT22;2463;49.948;8.472;2023-10-13T08:16:39;19.70;99.90
4896;DHT22;2463;49.948;8.472;2023-10-13T08:19:15;19.70;99.90
4896;DHT22;2463;49.948;8.472;2023-10-13T08:21:46;19.80;99.90
4896;DHT22;2463;49.948;8.472;2023-10-13T08:24:17;19.90;99.90
4896;DHT22;2463;49.948;8.472;2023-10-13T08:27:03;20.00;99.90
4896;DHT22;2463;49.948;8.472;2023-10-13T08:29:43;19.90;99.90
4896;DHT22;2463;49.948;8.472;2023-10-13T08:32:26;19.90;99.90
4896;DHT22;2463;49.948;8.472;2023-10-13T08:34:58;19.90;99.90
4896;DHT22;2463;49.948;8.472;2023-10-13T08:37:26;20.00;99.90
4896;DHT22;2463;49.948;8.472;2023-10-13T08:39:57;20.10;99.90
4896;DHT22;2463;49.948;8.472;2023-10-13T08:42:37;20.30;99.90
4896;DHT22;2463;49.948;8.472;2023-10-13T08:45:11;20.40;99.90
4896;DHT22;2463;49.948;8.472;2023-10-13T08:47:51;20.40;99.90
4896;DHT22;2463;49.948;8.472;2023-10-13T08:50:23;20.40;99.90
4896;DHT22;2463;49.948;8.472;2023-10-13T08:53:08;20.40;99.90
4896;DHT22;2463;49.948;8.472;2023-10-13T08:56:01;20.40;99.90
4896;DHT22;2463;49.948;8.472;2023-10-13T08:58:44;20.40;99.90
4896;DHT22;2463;49.948;8.472;2023-10-13T09:01:34;20.50;99.90
4896;DHT22;2463;49.948;8.472;2023-10-13T09:04:26;20.50;99.90
4896;DHT22;2463;49.948;8.472;2023-10-13T09:07:01;20.60;99.90
4896;DHT22;2463;49.948;8.472;2023-10-13T09:09:54;20.70;99.90
4896;DHT22;2463;49.948;8.472;2023-10-13T09:12:25;20.90;99.90
4896;DHT22;2463;49.948;8.472;2023-10-13T09:15:09;20.90;99.90
4896;DHT22;2463;49.948;8.472;2023-10-13T09:17:50;21.30;99.90
4896;DHT22;2463;49.948;8.472;2023-10-13T09:20:27;21.80;99.90
4896;DHT22;2463;49.948;8.472;2023-10-13T09:23:14;22.40;99.90
4896;DHT22;2463;49.948;8.472;2023-10-13T09:25:51;23.00;99.90
4896;DHT22;2463;49.948;8.472;2023-10-13T09:28:27;23.60;99.90
4896;DHT22;2463;49.948;8.472;2023-10-13T09:30:55;23.80;99.90
4896;DHT22;2463;49.948;8.472;2023-10-13T09:33:26;24.40;99.90
4896;DHT22;2463;49.948;8.472;2023-10-13T09:36:03;24.70;99.90
4896;DHT22;2463;49.948;8.472;2023-10-13T09:38:39;24.90;99.90
4896;DHT22;2463;49.948;8.472;2023-10-13T09:41:07;24.90;99.90
4896;DHT22;2463;49.948;8.472;2023-10-13T09:43:53;25.30;99.90
4896;DHT22;2463;49.948;8.472;2023-10-13T09:46:27;25.80;99.90
4896;DHT22;2463;49.948;8.472;2023-10-13T09:48:58;26.10;99.90
4896;DHT22;2463;49.948;8.472;2023-10-13T09:51:34;25.90;99.90
4896;DHT22;2463;49.948;8.472;2023-10-13T09:54:09;25.70;99.90
4896;DHT22;2463;49.948;8.472;2023-10-13T09:56:46;25.60;99.90
4896;DHT22;2463;49.948;8.472;2023-10-13T09:59:31;25.60;99.90
4896;DHT22;2463;49.948;8.472;2023-10-13T10:02:05;25.80;99.90
4896;DHT22;2463;49.948;8.472;2023-10-13T10:04:36;26.30;99.90
4896;DHT22;2463;49.948;8.472;2023-10-13T10:07:25;26.80;99.90
4896;DHT22;2463;49.948;8.472;2023-10-13T10:10:00;27.30;99.90
4896;DHT22;2463;49.948;8.472;2023-10-13T10:12:43;27.80;99.90
4896;DHT22;2463;49.948;8.472;2023-10-13T10:18:23;29.00;99.90
4896;DHT22;2463;49.948;8.472;2023-10-13T10:21:03;29.10;99.90
4896;DHT22;2463;49.948;8.472;2023-10-13T10:23:33;28.60;99.90
4896;DHT22;2463;49.948;8.472;2023-10-13T10:26:10;28.20;99.90
4896;DHT22;2463;49.948;8.472;2023-10-13T10:28:42;27.70;99.90
4896;DHT22;2463;49.948;8.472;2023-10-13T10:31:10;27.20;99.90
4896;DHT22;2463;49.948;8.472;2023-10-13T10:33:44;26.70;99.90
4896;DHT22;2463;49.948;8.472;2023-10-13T10:36:13;26.30;99.90
4896;DHT22;2463;49.948;8.472;2023-10-13T10:38:56;26.00;99.90
4896;DHT22;2463;49.948;8.472;2023-10-13T10:41:27;25.80;99.90
4896;DHT22;2463;49.948;8.472;2023-10-13T10:44:12;25.70;99.90
4896;DHT22;2463;49.948;8.472;2023-10-13T10:47:13;25.50;99.90
4896;DHT22;2463;49.948;8.472;2023-10-13T10:49:47;25.30;99.90
4896;DHT22;2463;49.948;8.472;2023-10-13T10:52:17;25.20;99.90
4896;DHT22;2463;49.948;8.472;2023-10-13T10:54:57;25.10;99.90
4896;DHT22;2463;49.948;8.472;2023-10-13T10:57:24;25.10;99.90
4896;DHT22;2463;49.948;8.472;2023-10-13T10:59:59;25.30;99.90
4896;DHT22;2463;49.948;8.472;2023-10-13T11:02:38;25.60;99.90
4896;DHT22;2463;49.948;8.472;2023-10-13T11:05:06;26.00;99.90
4896;DHT22;2463;49.948;8.472;2023-10-13T11:07:36;26.20;99.90
4896;DHT22;2463;49.948;8.472;2023-10-13T11:10:09;26.10;99.90
4896;DHT22;2463;49.948;8.472;2023-10-13T11:12:56;26.10;99.90
4896;DHT22;2463;49.948;8.472;2023-10-13T11:15:23;26.20;99.90
4896;DHT22;2463;49.948;8.472;2023-10-13T11:17:52;26.70;99.90
4896;DHT22;2463;49.948;8.472;2023-10-13T11:20:23;27.10;99.90
4896;DHT22;2463;49.948;8.472;2023-10-13T11:23:00;27.20;99.90
4896;DHT22;2463;49.948;8.472;2023-10-13T11:25:30;27.30;99.90
4896;DHT22;2463;49.948;8.472;2023-10-13T11:28:14;27.30;99.90
4896;DHT22;2463;49.948;8.472;2023-10-13T11:30:44;27.50;99.90
4896;DHT22;2463;49.948;8.472;2023-10-13T11:33:18;27.80;99.90
4896;DHT22;2463;49.948;8.472;2023-10-13T11:35:48;28.00;99.90
4896;DHT22;2463;49.948;8.472;2023-10-13T11:38:26;28.10;99.90
4896;DHT22;2463;49.948;8.472;2023-10-13T11:41:03;28.10;99.90
4896;DHT22;2463;49.948;8.472;2023-10-13T11:43:51;28.30;99.90
4896;DHT22;2463;49.948;8.472;2023-10-13T11:46:26;28.60;99.90
4896;DHT22;2463;49.948;8.472;2023-10-13T11:49:07;28.50;99.90
4896;DHT22;2463;49.948;8.472;2023-10-13T11:51:40;28.60;99.90
4896;DHT22;2463;49.948;8.472;2023-10-13T11:54:18;28.70;99.90
4896;DHT22;2463;49.948;8.472;2023-10-13T11:56:46;28.70;99.90
4896;DHT22;2463;49.948;8.472;2023-10-13T11:59:14;28.60;99.90
4896;DHT22;2463;49.948;8.472;2023-10-13T12:01:51;28.60;99.90
4896;DHT22;2463;49.948;8.472;2023-10-13T12:04:38;28.60;99.90
4896;DHT22;2463;49.948;8.472;2023-10-13T12:07:08;28.70;99.90
4896;DHT22;2463;49.948;8.472;2023-10-13T12:09:44;28.70;99.90
4896;DHT22;2463;49.948;8.472;2023-10-13T12:12:26;28.60;99.90
4896;DHT22;2463;49.948;8.472;2023-10-13T12:14:54;28.50;99.90
4896;DHT22;2463;49.948;8.472;2023-10-13T12:17:23;28.20;99.90
4896;DHT22;2463;49.948;8.472;2023-10-13T12:20:07;28.10;99.90
4896;DHT22;2463;49.948;8.472;2023-10-13T12:22:37;28.00;99.90
4896;DHT22;2463;49.948;8.472;2023-10-13T12:25:18;27.80;99.90
4896;DHT22;2463;49.948;8.472;2023-10-13T12:27:54;27.70;99.90
4896;DHT22;2463;49.948;8.472;2023-10-13T12:30:26;27.60;99.90
4896;DHT22;2463;49.948;8.472;2023-10-13T12:33:02;27.50;99.90
4896;DHT22;2463;49.948;8.472;2023-10-13T12:35:39;27.40;99.90
4896;DHT22;2463;49.948;8.472;2023-10-13T12:38:25;27.40;99.90
4896;DHT22;2463;49.948;8.472;2023-10-13T12:41:10;27.40;99.90
4896;DHT22;2463;49.948;8.472;2023-10-13T12:44:02;27.70;99.90
4896;DHT22;2463;49.948;8.472;2023-10-13T12:46:48;28.10;99.90
4896;DHT22;2463;49.948;8.472;2023-10-13T12:49:34;28.50;99.90
4896;DHT22;2463;49.948;8.472;2023-10-13T12:52:15;28.60;99.90
4896;DHT22;2463;49.948;8.472;2023-10-13T12:54:43;28.80;99.90
4896;DHT22;2463;49.948;8.472;2023-10-13T12:57:25;28.80;99.90
4896;DHT22;2463;49.948;8.472;2023-10-13T12:59:52;28.80;99.90
4896;DHT22;2463;49.948;8.472;2023-10-13T13:02:24;28.70;99.90
4896;DHT22;2463;49.948;8.472;2023-10-13T13:04:56;28.80;99.90
4896;DHT22;2463;49.948;8.472;2023-10-13T13:07:33;28.90;99.90
4896;DHT22;2463;49.948;8.472;2023-10-13T13:10:10;29.10;99.90
4896;DHT22;2463;49.948;8.472;2023-10-13T13:12:38;29.40;99.90
4896;DHT22;2463;49.948;8.472;2023-10-13T13:15:05;29.60;99.90
4896;DHT22;2463;49.948;8.472;2023-10-13T13:17:36;29.60;99.90
4896;DHT22;2463;49.948;8.472;2023-10-13T13:20:03;29.50;99.90
4896;DHT22;2463;49.948;8.472;2023-10-13T13:22:38;29.30;99.90
4896;DHT22;2463;49.948;8.472;2023-10-13T13:25:06;29.20;99.90
4896;DHT22;2463;49.948;8.472;2023-10-13T13:27:37;29.30;99.90
4896;DHT22;2463;49.948;8.472;2023-10-13T13:30:08;29.50;99.90
4896;DHT22;2463;49.948;8.472;2023-10-13T13:32:39;29.80;99.90
4896;DHT22;2463;49.948;8.472;2023-10-13T13:35:07;30.00;99.90
4896;DHT22;2463;49.948;8.472;2023-10-13T13:37:35;30.10;99.90
4896;DHT22;2463;49.948;8.472;2023-10-13T13:40:04;30.10;99.90
4896;DHT22;2463;49.948;8.472;2023-10-13T13:42:45;30.20;99.90
4896;DHT22;2463;49.948;8.472;2023-10-13T13:45:16;30.30;98.90
4896;DHT22;2463;49.948;8.472;2023-10-13T13:47:54;30.10;99.40
4896;DHT22;2463;49.948;8.472;2023-10-13T13:50:22;30.00;99.90
4896;DHT22;2463;49.948;8.472;2023-10-13T13:52:53;30.10;99.70
4896;DHT22;2463;49.948;8.472;2023-10-13T13:55:26;30.00;99.80
4896;DHT22;2463;49.948;8.472;2023-10-13T13:57:58;29.90;99.50
4896;DHT22;2463;49.948;8.472;2023-10-13T14:00:24;29.60;96.10
4896;DHT22;2463;49.948;8.472;2023-10-13T14:03:05;29.40;96.80
4896;DHT22;2463;49.948;8.472;2023-10-13T14:05:32;29.40;97.80
4896;DHT22;2463;49.948;8.472;2023-10-13T14:07:59;29.50;97.30
4896;DHT22;2463;49.948;8.472;2023-10-13T14:10:26;29.50;98.10
4896;DHT22;2463;49.948;8.472;2023-10-13T14:13:02;29.70;98.60
4896;DHT22;2463;49.948;8.472;2023-10-13T14:15:39;29.70;97.80
4896;DHT22;2463;49.948;8.472;2023-10-13T14:18:10;29.70;97.00
4896;DHT22;2463;49.948;8.472;2023-10-13T14:20:44;29.50;97.40
4896;DHT22;2463;49.948;8.472;2023-10-13T14:23:11;29.40;98.40
4896;DHT22;2463;49.948;8.472;2023-10-13T14:25:41;29.40;97.40
4896;DHT22;2463;49.948;8.472;2023-10-13T14:28:11;29.20;96.60
4896;DHT22;2463;49.948;8.472;2023-10-13T14:30:41;28.90;96.10
4896;DHT22;2463;49.948;8.472;2023-10-13T14:33:08;28.80;96.50
4896;DHT22;2463;49.948;8.472;2023-10-13T14:35:37;28.60;97.00
4896;DHT22;2463;49.948;8.472;2023-10-13T14:38:04;28.40;96.90
4896;DHT22;2463;49.948;8.472;2023-10-13T14:40:30;28.40;97.30
4896;DHT22;2463;49.948;8.472;2023-10-13T14:42:57;28.50;96.60
4896;DHT22;2463;49.948;8.472;2023-10-13T14:45:24;28.60;97.50
4896;DHT22;2463;49.948;8.472;2023-10-13T14:47:50;28.70;96.60
4896;DHT22;2463;49.948;8.472;2023-10-13T14:50:19;28.80;96.30
4896;DHT22;2463;49.948;8.472;2023-10-13T14:52:49;29.00;96.70
4896;DHT22;2463;49.948;8.472;2023-10-13T14:55:17;29.00;94.50
4896;DHT22;2463;49.948;8.472;2023-10-13T14:57:49;29.10;94.60
4896;DHT22;2463;49.948;8.472;2023-10-13T15:00:17;28.90;94.60
4896;DHT22;2463;49.948;8.472;2023-10-13T15:02:54;28.70;94.50
4896;DHT22;2463;49.948;8.472;2023-10-13T15:05:21;28.60;94.80
4896;DHT22;2463;49.948;8.472;2023-10-13T15:07:48;28.60;94.20
4896;DHT22;2463;49.948;8.472;2023-10-13T15:10:15;28.60;94.60
4896;DHT22;2463;49.948;8.472;2023-10-13T15:12:43;28.60;95.20
4896;DHT22;2463;49.948;8.472;2023-10-13T15:15:13;28.50;94.50
4896;DHT22;2463;49.948;8.472;2023-10-13T15:17:40;28.40;94.60
4896;DHT22;2463;49.948;8.472;2023-10-13T15:20:07;28.20;94.60
4896;DHT22;2463;49.948;8.472;2023-10-13T15:22:45;28.10;95.60
4896;DHT22;2463;49.948;8.472;2023-10-13T15:25:16;27.90;96.00
4896;DHT22;2463;49.948;8.472;2023-10-13T15:27:59;27.80;96.10
4896;DHT22;2463;49.948;8.472;2023-10-13T15:30:30;27.70;95.70
4896;DHT22;2463;49.948;8.472;2023-10-13T15:33:12;27.50;96.40
4896;DHT22;2463;49.948;8.472;2023-10-13T15:35:41;27.40;96.70
4896;DHT22;2463;49.948;8.472;2023-10-13T15:38:10;27.40;97.10
4896;DHT22;2463;49.948;8.472;2023-10-13T15:40:44;27.20;97.40
4896;DHT22;2463;49.948;8.472;2023-10-13T15:43:12;27.10;97.80
4896;DHT22;2463;49.948;8.472;2023-10-13T15:45:39;27.10;97.70
4896;DHT22;2463;49.948;8.472;2023-10-13T15:48:06;27.00;98.00
4896;DHT22;2463;49.948;8.472;2023-10-13T15:50:39;26.90;97.90
4896;DHT22;2463;49.948;8.472;2023-10-13T15:53:07;26.80;99.00
4896;DHT22;2463;49.948;8.472;2023-10-13T15:55:36;26.70;97.60
4896;DHT22;2463;49.948;8.472;2023-10-13T15:58:04;26.60;97.30
4896;DHT22;2463;49.948;8.472;2023-10-13T16:00:35;26.50;97.20
4896;DHT22;2463;49.948;8.472;2023-10-13T16:03:02;26.40;98.90
4896;DHT22;2463;49.948;8.472;2023-10-13T16:05:38;26.40;98.00
4896;DHT22;2463;49.948;8.472;2023-10-13T16:08:06;26.30;98.10
4896;DHT22;2463;49.948;8.472;2023-10-13T16:10:39;26.20;98.30
4896;DHT22;2463;49.948;8.472;2023-10-13T16:13:05;26.10;98.10
4896;DHT22;2463;49.948;8.472;2023-10-13T16:15:37;26.10;98.80
4896;DHT22;2463;49.948;8.472;2023-10-13T16:18:10;26.00;99.10
4896;DHT22;2463;49.948;8.472;2023-10-13T16:20:37;25.80;98.90
4896;DHT22;2463;49.948;8.472;2023-10-13T16:23:04;25.80;99.40
4896;DHT22;2463;49.948;8.472;2023-10-13T16:25:35;25.80;99.40
4896;DHT22;2463;49.948;8.472;2023-10-13T16:28:02;25.70;99.40
4896;DHT22;2463;49.948;8.472;2023-10-13T16:30:29;25.60;99.10
4896;DHT22;2463;49.948;8.472;2023-10-13T16:32:56;25.50;99.40
4896;DHT22;2463;49.948;8.472;2023-10-13T16:35:23;25.50;99.50
4896;DHT22;2463;49.948;8.472;2023-10-13T16:37:50;25.40;99.60
4896;DHT22;2463;49.948;8.472;2023-10-13T16:40:20;25.40;99.40
4896;DHT22;2463;49.948;8.472;2023-10-13T16:42:48;25.20;99.20
4896;DHT22;2463;49.948;8.472;2023-10-13T16:45:15;25.20;99.40
4896;DHT22;2463;49.948;8.472;2023-10-13T16:47:47;25.20;99.90
4896;DHT22;2463;49.948;8.472;2023-10-13T16:50:14;25.10;99.90
4896;DHT22;2463;49.948;8.472;2023-10-13T16:52:43;25.00;99.80
4896;DHT22;2463;49.948;8.472;2023-10-13T16:55:14;25.00;99.90